KDCA

Ronald Reagan Washington National Airport

Washington, Virginia, USA
METAR KDCA 252152Z 19013KT 10SM FEW050 BKN250 29/19 A2991 RMK AO2 SLP128 T02890189
Observed Flight Rules
May-25 @ 21:52 UTC (33 minutes ago) Visual Flight Rules
Wind Visibility Clouds
190° at 13 knots 10 miles
  • Few at 5,000' AGL
  • Broken at 25,000' AGL
Temperatures Readings
Current 29°C / 84°F
Dewpoint 19°C / 66°F
Humidity 55%
Altimeter 29.91" Hg
Pressure 1012.8 hPa
Elevation 18
METAR KDCA 252152Z 19013KT 10SM FEW050 BKN250 29/19 A2991 RMK AO2 SLP128 T02890189
Observed Flight Rules
May-25 @ 21:52 UTC
(33 minutes ago)
VFR
Wind Visibility
190° at 13 knots 10 miles
Clouds
  • Few at 5,000' AGL
  • Broken at 25,000' AGL
Temperature Dewpoint
29°C / 84°F 19°C / 66°F
Humidity Altimeter Pressure
55% 29.91" Hg 1012.8 hPa